Time;durP1;ratioP1;P1;durP2;ratioP2;P2;SDS_P1;SDS_P2;PMS_P1;PMS_P2;Temp;Humidity;BMP_temperature;BMP_pressure;BME280_temperature;BME280_humidity;BME280_pressure;Samples;Min_cycle;Max_cycle;Signal;HPM_P1;HPM_P2
2022/04/01 00:01:56;;;;;;;4.97;0.93;;;;;;;26.56;28.44;94573.72;4959001;28;20608;-35
2022/04/01 00:04:22;;;;;;;1.30;0.82;;;;;;;26.55;28.03;94569.41;4963200;28;20023;-36
2022/04/01 00:06:47;;;;;;;4.20;1.20;;;;;;;26.56;28.17;94573.72;4959702;28;20061;-34
2022/04/01 00:09:12;;;;;;;1.00;0.90;;;;;;;-148.56;28.17;75611.97;4959734;28;20026;-36
2022/04/01 00:11:38;;;;;;;0.98;0.82;;;;;;;26.56;28.28;94573.72;4961854;28;20042;-37
2022/04/01 00:14:03;;;;;;;1.63;0.98;;;;;;;26.56;28.06;94571.09;4959846;28;20436;-32
2022/04/01 00:16:29;;;;;;;1.77;0.93;;;;;;;26.56;28.06;94571.09;4955623;28;20030;-32
2022/04/01 00:18:55;;;;;;;4.47;1.15;;;;;;;26.55;28.07;94572.03;4964325;28;20027;-32
2022/04/01 00:21:21;;;;;;;2.17;1.02;;;;;;;26.54;28.02;94573.03;4962777;28;20055;-39
2022/04/01 00:23:46;;;;;;;2.95;1.27;;;;;;;26.55;27.90;94582.56;4958984;28;20069;-32
2022/04/01 00:26:11;;;;;;;5.38;1.40;;;;;;;26.54;28.56;94580.91;4958588;28;20781;-36
2022/04/01 00:28:38;;;;;;;1.80;1.33;;;;;;;26.54;28.14;94573.03;4958521;28;22382;-37
2022/04/01 00:31:03;;;;;;;2.83;1.23;;;;;;;26.54;28.14;94573.03;4960313;28;20038;-37
2022/04/01 00:33:29;;;;;;;1.30;1.20;;;;;;;26.54;28.14;94573.03;4959917;28;20400;-36
2022/04/01 00:35:54;;;;;;;2.10;1.02;;;;;;;26.56;27.82;94572.88;4964555;28;20121;-40
2022/04/01 00:38:20;;;;;;;3.22;1.25;;;;;;;26.54;27.85;94575.66;4963432;28;20036;-36
2022/04/01 00:40:45;;;;;;;2.20;1.40;;;;;;;26.55;27.96;94582.56;4964193;28;22190;-40
2022/04/01 00:43:11;;;;;;;1.65;1.40;;;;;;;26.56;28.03;94571.09;4963942;28;20035;-41
2022/04/01 00:45:36;;;;;;;3.08;1.58;;;;;;;26.56;28.26;94581.59;4961303;28;20034;-34
2022/04/01 00:48:02;;;;;;;3.45;1.67;;;;;;;26.55;28.06;94582.56;4964040;28;20088;-38
2022/04/01 00:50:30;;;;;;;2.58;1.60;;;;;;;26.55;27.96;94587.81;4966030;28;20048;-35
2022/04/01 00:52:55;;;;;;;3.25;1.60;;;;;;;26.54;27.85;94586.16;4959695;28;20399;-37
2022/04/01 00:55:21;;;;;;;1.42;1.33;;;;;;;26.55;28.14;94587.81;4966936;28;20096;-31
2022/04/01 00:57:46;;;;;;;1.45;1.13;;;;;;;26.55;28.17;94577.31;4970408;28;20030;-33
2022/04/01 01:00:12;;;;;;;2.00;1.58;;;;;;;26.55;27.68;94581.75;4967624;28;20713;-38
2022/04/01 01:02:39;;;;;;;5.60;2.00;;;;;;;26.54;28.04;94575.66;4964818;28;20824;-39
2022/04/01 01:05:05;;;;;;;1.92;1.67;;;;;;;26.54;27.84;94580.91;4962076;28;20030;-31
2022/04/01 01:07:30;;;;;;;5.75;1.80;;;;;;;26.54;27.95;94580.91;4958819;28;20026;-38
2022/04/01 01:09:55;;;;;;;2.00;1.55;;;;;;;26.54;27.92;94575.66;4964566;28;20034;-38
2022/04/01 01:12:21;;;;;;;2.00;1.30;;;;;;;26.54;28.00;94575.66;4961271;28;20535;-28
2022/04/01 01:14:46;;;;;;;1.33;1.20;;;;;;;26.54;27.71;94580.91;4966657;28;20038;-40
2022/04/01 01:17:12;;;;;;;3.13;1.73;;;;;;;26.53;27.72;94571.38;4963196;28;20061;-37
2022/04/01 01:19:38;;;;;;;3.92;1.77;;;;;;;26.52;27.85;94574.97;4971899;28;20034;-34
2022/04/01 01:22:04;;;;;;;2.25;2.05;;;;;;;26.52;28.01;94577.59;4959229;28;20073;-30
2022/04/01 01:24:31;;;;;;;1.98;1.85;;;;;;;26.52;27.88;94572.34;4966778;28;20053;-36
2022/04/01 01:26:57;;;;;;;1.85;1.30;;;;;;;26.52;28.09;94572.34;4970945;28;20073;-39
2022/04/01 01:35:13;;;;;;;1.88;1.40;;;;;;;26.51;28.14;94570.69;4904442;28;20121;-36
2022/04/01 01:37:38;;;;;;;3.65;1.85;;;;;;;26.51;27.88;94570.69;4941036;28;20033;-33
2022/04/01 01:40:04;;;;;;;3.08;2.08;;;;;;;26.51;27.88;94570.69;4942316;28;20050;-34
2022/04/01 01:42:30;;;;;;;3.10;1.83;;;;;;;26.51;27.96;94570.69;4932686;28;20066;-36
2022/04/01 01:44:58;;;;;;;1.98;1.83;;;;;;;26.51;27.69;94573.31;4909114;28;20039;-29
2022/04/01 01:47:23;;;;;;;1.52;1.42;;;;;;;26.51;27.79;94570.69;4920063;28;20478;-31
2022/04/01 01:55:16;;;;;;;4.57;2.20;;;;;;;26.51;27.82;94568.06;4926312;28;20050;-29
2022/04/01 01:57:42;;;;;;;3.15;1.80;;;;;;;26.50;27.59;94571.63;4927316;28;20027;-32
2022/04/01 02:00:11;;;;;;;2.15;1.60;;;;;;;26.50;27.69;94579.53;4932909;28;20030;-30
2022/04/01 02:02:37;;;;;;;1.25;1.13;;;;;;;26.50;27.60;94574.28;4932013;28;20541;-32
2022/04/01 02:05:04;;;;;;;1.70;1.60;;;;;;;26.50;28.16;94569.03;4931922;28;20490;-30
2022/04/01 02:07:29;;;;;;;2.45;1.75;;;;;;;26.49;27.87;94567.38;4931291;28;20038;-31
2022/04/01 02:09:54;;;;;;;2.17;1.90;;;;;;;26.49;27.68;94564.75;4928172;28;20039;-29
2022/04/01 02:12:20;;;;;;;1.70;1.60;;;;;;;26.49;27.86;94562.13;4933389;28;20034;-30
2022/04/01 02:14:45;;;;;;;2.22;1.85;;;;;;;26.47;27.79;94564.88;4932757;28;20090;-29
2022/04/01 02:17:11;;;;;;;2.33;2.10;;;;;;;26.49;27.52;94567.38;4931937;28;20023;-28
2022/04/01 02:19:37;;;;;;;1.77;1.58;;;;;;;26.47;27.93;94564.88;4930460;28;20578;-29
2022/04/01 02:22:05;;;;;;;2.10;1.88;;;;;;;26.48;27.95;94565.72;4928353;28;20402;-30
2022/04/01 02:24:31;;;;;;;1.63;1.52;;;;;;;26.48;28.05;94563.09;4925361;28;20094;-32
2022/04/01 02:26:56;;;;;;;2.05;1.70;;;;;;;26.49;27.90;94564.75;4923079;28;20035;-30
2022/04/01 02:29:22;;;;;;;2.00;1.70;;;;;;;26.47;27.80;94570.13;4924906;28;20035;-30
2022/04/01 02:31:50;;;;;;;2.38;1.60;;;;;;;26.47;27.85;94564.06;4925885;28;20042;-29
2022/04/01 02:34:17;;;;;;;2.10;1.50;;;;;;;26.47;27.58;94564.06;4925579;28;20028;-33
2022/04/01 02:36:43;;;;;;;1.90;1.80;;;;;;;26.47;27.57;94569.31;4923811;28;20617;-29
2022/04/01 02:39:08;;;;;;;2.58;1.70;;;;;;;26.48;27.55;94565.72;4926003;28;20027;-31
2022/04/01 02:41:34;;;;;;;1.70;1.60;;;;;;;26.46;27.65;94567.63;4921798;28;20815;-28
2022/04/01 02:44:08;;;;;;;2.45;1.70;;;;;;;26.45;27.83;94566.81;4920687;28;20035;-29
2022/04/01 02:46:40;;;;;;;2.47;1.95;;;;;;;26.46;27.96;94562.38;4900193;28;20179;-30
2022/04/01 02:49:07;;;;;;;2.47;1.70;;;;;;;26.45;27.44;94565.97;4890239;28;20056;-30
2022/04/01 02:51:34;;;;;;;2.60;1.92;;;;;;;26.45;28.00;94577.34;4894817;28;20027;-29
2022/04/01 02:53:59;;;;;;;2.20;2.00;;;;;;;26.46;27.52;94567.63;4889257;28;20031;-30
2022/04/01 02:56:25;;;;;;;2.50;1.95;;;;;;;26.46;27.99;94567.63;4894591;28;20039;-32
2022/04/01 02:58:51;;;;;;;2.03;1.80;;;;;;;26.45;27.99;94571.25;4891670;28;20142;-30
2022/04/01 03:01:17;;;;;;;2.67;2.10;;;;;;;26.45;27.92;94571.25;4898778;28;20023;-31
2022/04/01 03:03:42;;;;;;;2.00;1.42;;;;;;;26.44;27.47;94570.44;4891485;28;20050;-30
2022/04/01 03:06:07;;;;;;;1.77;1.55;;;;;;;26.43;27.86;94567.94;4889045;28;20472;-29
2022/04/01 03:08:33;;;;;;;4.03;2.00;;;;;;;26.45;27.30;94577.34;4891354;28;20034;-29
2022/04/01 03:10:59;;;;;;;3.05;1.50;;;;;;;26.44;27.57;94574.84;4891117;28;20030;-30
2022/04/01 03:13:25;;;;;;;2.42;1.90;;;;;;;26.44;27.69;94569.59;4890589;28;21002;-30
2022/04/01 03:15:50;;;;;;;1.92;1.40;;;;;;;26.43;27.76;94567.94;4888555;28;20044;-31
2022/04/01 03:18:16;;;;;;;1.35;1.25;;;;;;;26.43;27.82;94573.19;4885201;28;20070;-31
2022/04/01 03:20:41;;;;;;;2.17;1.77;;;;;;;26.44;27.67;94569.59;4886630;28;20101;-30
2022/04/01 03:23:06;;;;;;;2.65;1.52;;;;;;;26.41;27.59;94567.22;4889850;28;20531;-29
2022/04/01 03:25:34;;;;;;;2.05;1.65;;;;;;;26.41;27.99;94577.75;4897696;28;20042;-31
2022/04/01 03:28:01;;;;;;;1.50;1.40;;;;;;;26.42;27.90;94582.00;4890373;28;20837;-31
2022/04/01 03:30:27;;;;;;;1.50;1.40;;;;;;;26.41;27.86;94577.75;4887605;28;20513;-29
2022/04/01 03:32:53;;;;;;;2.58;1.70;;;;;;;26.41;27.51;94575.09;4884498;28;20222;-29
2022/04/01 03:35:19;;;;;;;3.72;1.50;;;;;;;26.41;27.57;94590.88;4889583;28;20070;-31
2022/04/01 03:37:49;;;;;;;1.88;1.60;;;;;;;26.40;28.01;94583.97;4884036;28;20678;-31
2022/04/01 03:40:15;;;;;;;1.77;1.50;;;;;;;26.40;27.91;94589.22;4890071;28;20042;-30
2022/04/01 03:42:47;;;;;;;1.30;1.20;;;;;;;26.39;27.87;94587.56;4885931;28;20224;-31
2022/04/01 03:45:13;;;;;;;2.13;1.40;;;;;;;26.39;27.59;94591.00;4896384;28;20039;-30
2022/04/01 03:47:58;;;;;;;2.00;1.63;;;;;;;26.39;27.89;94592.81;4923337;28;20367;-31
2022/04/01 03:50:32;;;;;;;2.45;2.00;;;;;;;26.39;27.45;94593.63;4923194;28;20095;-30
2022/04/01 03:53:08;;;;;;;1.73;1.58;;;;;;;26.38;27.47;94591.16;4926375;28;20125;-30
2022/04/01 03:55:35;;;;;;;1.63;1.52;;;;;;;26.38;27.50;94591.16;4925025;28;20063;-32
2022/04/01 03:58:08;;;;;;;2.25;1.60;;;;;;;26.38;27.61;94591.16;4926383;28;20525;-31
2022/04/01 04:00:33;;;;;;;1.45;1.35;;;;;;;26.37;27.75;94585.06;4927360;28;20057;-33
2022/04/01 04:02:59;;;;;;;2.28;1.55;;;;;;;26.37;27.75;94585.06;4925396;28;20023;-31
2022/04/01 04:05:24;;;;;;;1.48;1.30;;;;;;;26.38;28.03;94591.16;4926924;28;20036;-31
2022/04/01 04:07:50;;;;;;;1.67;1.58;;;;;;;26.35;27.54;94593.09;4926998;28;20031;-31
2022/04/01 04:10:15;;;;;;;1.83;1.52;;;;;;;26.36;27.53;94591.31;4923463;28;20719;-33
2022/04/01 04:12:41;;;;;;;1.73;1.60;;;;;;;26.36;27.51;94604.44;4926547;28;20061;-31
2022/04/01 04:15:07;;;;;;;1.27;1.17;;;;;;;26.37;27.73;94610.50;4942260;28;20090;-31
2022/04/01 04:17:39;;;;;;;2.03;1.38;;;;;;;26.35;27.42;94608.00;4925310;28;20027;-30
2022/04/01 04:20:08;;;;;;;1.40;1.30;;;;;;;26.34;27.41;94596.69;4924621;28;20063;-29
2022/04/01 04:22:46;;;;;;;1.63;1.52;;;;;;;26.34;27.82;94599.31;4926886;28;20094;-30
2022/04/01 04:25:14;;;;;;;1.52;1.42;;;;;;;26.34;27.61;94601.94;4937851;28;20031;-37
2022/04/01 04:27:47;;;;;;;1.40;1.20;;;;;;;26.33;27.61;94605.53;4923086;28;20038;-32
2022/04/01 04:30:13;;;;;;;1.30;1.20;;;;;;;26.33;27.54;94604.69;4924798;28;20024;-30
2022/04/01 04:32:39;;;;;;;1.40;1.30;;;;;;;26.32;27.48;94603.03;4927927;28;20035;-31
2022/04/01 04:35:07;;;;;;;1.30;1.20;;;;;;;26.33;27.55;94610.78;4925673;28;20047;-33
2022/04/01 04:37:34;;;;;;;9.02;2.67;;;;;;;26.32;27.09;94609.09;4925248;28;20027;-32
2022/04/01 04:40:01;;;;;;;3.17;2.50;;;;;;;26.30;27.45;94610.22;4927018;28;20667;-32
2022/04/01 04:42:27;;;;;;;2.17;1.70;;;;;;;26.29;27.42;94608.56;4927515;28;20127;-30
2022/04/01 04:44:53;;;;;;;3.88;1.50;;;;;;;26.30;27.34;94615.47;4939480;28;20032;-31
2022/04/01 04:47:25;;;;;;;3.90;1.52;;;;;;;26.29;27.79;94614.66;4927053;28;21179;-31
2022/04/01 04:49:51;;;;;;;3.13;1.63;;;;;;;26.29;27.87;94619.91;4936546;28;20032;-30
2022/04/01 04:52:18;;;;;;;2.58;1.65;;;;;;;26.28;27.36;94617.41;4924831;28;20035;-34
2022/04/01 04:54:43;;;;;;;4.63;1.50;;;;;;;26.29;27.87;94616.44;4930704;28;20032;-30
2022/04/01 04:57:08;;;;;;;1.63;1.23;;;;;;;26.29;27.55;94619.06;4946786;28;20032;-31
2022/04/01 04:59:34;;;;;;;2.50;1.20;;;;;;;26.28;27.62;94620.84;4928128;28;20036;-30
2022/04/01 05:02:07;;;;;;;1.50;1.40;;;;;;;26.30;28.00;94628.59;4943638;28;20139;-31
2022/04/01 05:04:49;;;;;;;1.30;1.20;;;;;;;26.27;27.88;94621.81;4941613;28;20067;-34
2022/04/01 05:07:55;;;;;;;2.28;1.40;;;;;;;26.29;27.54;94625.16;4931427;28;20040;-30
2022/04/01 05:10:25;;;;;;;1.25;1.15;;;;;;;26.28;27.55;94633.97;4925230;28;20822;-32
2022/04/01 05:13:03;;;;;;;1.20;1.10;;;;;;;26.30;27.60;94636.47;4907356;28;20553;-31
2022/04/01 05:15:30;;;;;;;1.33;1.23;;;;;;;26.30;27.37;94637.31;4932094;28;20595;-31
2022/04/01 05:18:08;;;;;;;2.72;1.27;;;;;;;26.29;27.77;94643.53;4933563;28;20027;-31
2022/04/01 05:20:38;;;;;;;1.42;1.23;;;;;;;26.30;27.45;94641.72;4936313;28;20099;-30
2022/04/01 05:23:19;;;;;;;1.70;1.52;;;;;;;26.29;27.85;94640.06;4931129;28;20121;-35
2022/04/01 05:25:46;;;;;;;1.20;1.10;;;;;;;26.30;27.80;94646.97;4932824;28;20050;-30
2022/04/01 05:28:31;;;;;;;3.33;1.65;;;;;;;26.29;27.77;94650.56;4932598;28;20046;-31
2022/04/01 05:31:00;;;;;;;2.33;1.48;;;;;;;26.29;27.82;94651.41;4925297;28;20095;-31
2022/04/01 05:33:26;;;;;;;6.47;2.78;;;;;;;26.28;27.40;94644.47;4923566;28;20047;-35
2022/04/01 05:35:51;;;;;;;13.10;1.73;;;;;;;26.27;27.44;94648.06;4922081;28;20066;-29
2022/04/01 05:38:19;;;;;;;2.80;1.52;;;;;;;26.27;27.67;94652.53;4921112;28;21133;-31
2022/04/01 05:40:45;;;;;;;2.60;1.13;;;;;;;26.26;27.58;94661.34;4926857;28;20024;-30
2022/04/01 05:43:10;;;;;;;1.30;1.20;;;;;;;26.27;27.62;94658.56;4925841;28;20454;-34
2022/04/01 05:45:35;;;;;;;1.98;1.35;;;;;;;26.27;27.90;94663.84;4925288;28;20023;-33
2022/04/01 05:48:01;;;;;;;1.50;1.40;;;;;;;26.26;27.61;94667.44;4922673;28;20024;-29
2022/04/01 05:50:28;;;;;;;1.27;1.17;;;;;;;26.26;27.36;94659.56;4936194;28;20036;-31
2022/04/01 05:52:53;;;;;;;2.13;1.30;;;;;;;26.27;27.58;94669.09;4921515;28;20109;-35
2022/04/01 05:55:22;;;;;;;9.02;1.52;;;;;;;26.28;27.53;94669.94;4926758;28;20039;-30
2022/04/01 05:57:47;;;;;;;1.23;1.10;;;;;;;26.27;27.34;94673.53;4922412;28;20027;-31
2022/04/01 06:00:13;;;;;;;1.25;1.05;;;;;;;26.27;27.67;94674.34;4923618;28;20042;-31
2022/04/01 06:03:06;;;;;;;1.80;1.58;;;;;;;26.28;27.77;94676.00;4923572;28;20023;-30
2022/04/01 06:05:44;;;;;;;1.63;1.52;;;;;;;26.28;27.64;94676.00;4923624;28;20169;-29
2022/04/01 06:08:31;;;;;;;1.67;1.30;;;;;;;26.29;27.38;94682.91;4922395;28;20031;-32
2022/04/01 06:11:06;;;;;;;1.80;1.30;;;;;;;26.27;27.47;94679.59;4924001;28;20720;-30
2022/04/01 06:13:55;;;;;;;1.15;1.15;;;;;;;26.28;27.30;94686.50;4926865;28;20527;-30
2022/04/01 06:16:32;;;;;;;1.40;1.15;;;;;;;26.28;27.82;94689.13;4923685;28;20035;-30
2022/04/01 06:19:24;;;;;;;1.70;1.40;;;;;;;26.28;27.24;94686.50;4906251;28;20114;-31
2022/04/01 06:21:59;;;;;;;1.02;1.00;;;;;;;26.29;27.79;94684.69;4923323;28;20572;-31
2022/04/01 06:24:36;;;;;;;1.95;1.17;;;;;;;26.29;27.45;94696.06;4938476;28;20035;-30
2022/04/01 06:27:02;;;;;;;8.88;1.40;;;;;;;26.28;27.69;94697.00;4923755;28;20888;-31
2022/04/01 06:29:34;;;;;;;2.60;1.17;;;;;;;26.29;27.75;94697.84;4924697;28;20042;-33
2022/04/01 06:32:22;;;;;;;2.25;1.23;;;;;;;26.29;27.62;94703.94;4926471;28;20058;-30
2022/04/01 06:35:06;;;;;;;1.50;1.23;;;;;;;26.29;27.24;94706.56;4924347;28;20043;-31
2022/04/01 06:37:37;;;;;;;2.15;1.48;;;;;;;26.29;27.23;94703.94;4926702;28;20123;-31
2022/04/01 06:40:12;;;;;;;1.15;0.98;;;;;;;26.29;27.38;94706.56;4924197;28;20605;-32
2022/04/01 06:42:39;;;;;;;1.17;1.08;;;;;;;26.29;27.79;94711.81;4923110;28;20042;-29
2022/04/01 06:45:09;;;;;;;2.25;1.00;;;;;;;26.29;27.64;94709.19;4934233;28;20637;-30
2022/04/01 06:47:35;;;;;;;1.77;1.20;;;;;;;26.29;27.60;94709.19;4924605;28;20059;-30
2022/04/01 06:50:01;;;;;;;1.63;1.40;;;;;;;26.29;27.47;94714.44;4928356;28;20478;-31
2022/04/01 06:52:26;;;;;;;1.52;1.10;;;;;;;26.30;27.33;94712.63;4928225;28;20034;-42
2022/04/01 06:54:53;;;;;;;2.03;1.23;;;;;;;26.30;27.55;94710.81;4928076;28;20413;-31
2022/04/01 06:57:19;;;;;;;1.48;1.30;;;;;;;26.30;27.62;94710.81;4938211;28;20382;-31
2022/04/01 06:59:44;;;;;;;1.70;1.50;;;;;;;26.32;27.51;94708.88;4942625;28;20031;-29
2022/04/01 07:02:10;;;;;;;1.40;1.30;;;;;;;26.31;27.52;94712.47;4922685;28;20460;-31
2022/04/01 07:04:35;;;;;;;2.75;1.40;;;;;;;26.31;27.46;94712.47;4924320;28;20035;-30
2022/04/01 07:07:00;;;;;;;8.10;1.85;;;;;;;26.33;27.61;94717.59;4927148;28;20042;-31
2022/04/01 07:09:26;;;;;;;5.10;1.50;;;;;;;26.32;27.60;94723.81;4921251;28;20031;-30
2022/04/01 07:11:53;;;;;;;12.68;3.25;;;;;;;26.33;27.54;94728.94;4907184;28;20035;-30
2022/04/01 07:14:18;;;;;;;7.90;2.20;;;;;;;26.33;27.17;94721.06;4917565;28;20023;-29
2022/04/01 07:16:44;;;;;;;5.05;2.60;;;;;;;26.32;27.67;94716.75;4916661;28;20079;-29
2022/04/01 07:19:10;;;;;;;8.05;1.92;;;;;;;26.32;27.30;94718.56;4924593;28;20039;-30
2022/04/01 07:21:35;;;;;;;7.95;2.15;;;;;;;26.32;27.10;94713.31;4921540;28;20039;-31
2022/04/01 07:24:02;;;;;;;7.75;2.13;;;;;;;26.33;27.21;94728.94;4921810;28;20459;-29
2022/04/01 07:26:27;;;;;;;5.57;2.20;;;;;;;26.33;27.21;94728.94;4922159;28;20122;-32
2022/04/01 07:28:54;;;;;;;19.10;2.63;;;;;;;26.32;27.44;94723.81;4922715;28;20043;-30
2022/04/01 07:34:04;;;;;;;11.20;2.80;;;;;;;26.30;27.61;94721.34;4927639;28;20129;-31
2022/04/01 07:36:29;;;;;;;3.83;2.20;;;;;;;26.31;27.53;94728.25;4928161;28;20035;-31
2022/04/01 07:38:55;;;;;;;6.30;2.72;;;;;;;26.31;27.51;94728.25;4927829;28;20533;-29
2022/04/01 07:41:20;;;;;;;7.53;2.90;;;;;;;26.30;27.65;94726.59;4924709;28;20046;-34
2022/04/01 07:43:46;;;;;;;5.53;2.45;;;;;;;26.31;27.81;94728.25;4928505;28;20038;-32
2022/04/01 07:46:11;;;;;;;6.70;2.60;;;;;;;26.32;27.31;94729.06;4927875;28;20643;-30
2022/04/01 07:48:37;;;;;;;8.57;2.85;;;;;;;26.31;27.64;94733.50;4926607;28;20044;-30
2022/04/01 07:51:03;;;;;;;7.85;2.70;;;;;;;26.31;27.42;94738.75;4921831;28;20027;-31
2022/04/01 07:53:28;;;;;;;7.60;2.80;;;;;;;26.31;27.74;94738.75;4924969;28;20242;-30
2022/04/01 07:55:53;;;;;;;7.40;2.38;;;;;;;26.33;27.81;94747.31;4927747;28;20031;-30
2022/04/01 07:58:19;;;;;;;8.80;2.38;;;;;;;26.33;27.79;94747.31;4926059;28;20683;-33
2022/04/01 08:00:45;;;;;;;4.35;2.30;;;;;;;26.33;27.63;94734.19;4923797;28;21400;-32
2022/04/01 08:03:11;;;;;;;5.57;2.35;;;;;;;26.37;27.72;94747.03;4921636;28;20028;-33
2022/04/01 08:05:36;;;;;;;5.38;2.38;;;;;;;26.37;27.59;94752.28;4928575;28;20043;-30
2022/04/01 08:08:02;;;;;;;7.70;2.30;;;;;;;26.37;27.80;94747.03;4919964;28;20584;-33
2022/04/01 08:10:27;;;;;;;11.95;2.83;;;;;;;26.37;27.66;94752.28;4925140;28;20498;-31
2022/04/01 08:12:52;;;;;;;5.40;2.40;;;;;;;26.37;27.47;94752.28;4929487;28;20119;-30
2022/04/01 08:15:18;;;;;;;6.30;2.53;;;;;;;26.39;27.44;94753.00;4925010;28;20692;-29
2022/04/01 08:17:43;;;;;;;5.00;2.72;;;;;;;26.39;27.99;94755.63;4924386;28;20027;-30
2022/04/01 08:20:12;;;;;;;8.57;2.15;;;;;;;26.39;27.68;94766.94;4925934;28;20067;-29
2022/04/01 08:22:37;;;;;;;4.55;2.15;;;;;;;26.39;27.68;94766.94;4927897;28;20031;-31
2022/04/01 08:25:03;;;;;;;6.43;2.00;;;;;;;26.40;27.49;94759.91;4927785;28;20024;-32
2022/04/01 08:27:28;;;;;;;6.05;2.22;;;;;;;26.42;28.04;94768.47;4924826;28;20039;-29
2022/04/01 08:29:59;;;;;;;5.65;2.20;;;;;;;26.42;27.98;94773.72;4922866;28;20027;-32
2022/04/01 08:32:24;;;;;;;3.95;1.83;;;;;;;26.42;28.01;94771.09;4935120;28;20038;-29
2022/04/01 08:34:50;;;;;;;4.57;2.13;;;;;;;26.42;27.59;94782.44;4921642;28;20031;-30
2022/04/01 08:37:15;;;;;;;7.85;2.35;;;;;;;26.43;27.52;94778.84;4924655;28;20031;-29
2022/04/01 08:39:43;;;;;;;4.00;2.00;;;;;;;26.44;27.63;94782.31;4925683;28;20035;-32
2022/04/01 08:42:09;;;;;;;3.42;1.80;;;;;;;26.45;28.07;94781.34;4927650;28;20131;-32
2022/04/01 08:44:37;;;;;;;6.40;2.25;;;;;;;26.45;27.97;94781.34;4927273;28;20038;-31
2022/04/01 08:47:03;;;;;;;6.50;2.00;;;;;;;26.46;27.61;94790.88;4925552;28;20101;-31
2022/04/01 08:49:29;;;;;;;4.47;1.77;;;;;;;26.45;27.77;94781.34;4940325;28;20035;-30
2022/04/01 08:51:54;;;;;;;5.47;2.38;;;;;;;26.46;28.00;94793.50;4928115;28;20405;-30
2022/04/01 08:54:20;;;;;;;3.17;1.92;;;;;;;26.46;27.84;94793.50;4941369;28;21062;-30
2022/04/01 08:56:45;;;;;;;6.22;2.33;;;;;;;26.47;27.96;94795.19;4933151;28;20031;-31
2022/04/01 08:59:11;;;;;;;3.67;1.73;;;;;;;26.47;27.54;94795.19;4929515;28;20032;-33
2022/04/01 09:01:41;;;;;;;9.00;2.40;;;;;;;26.47;28.00;94800.44;4940124;28;20035;-30
2022/04/01 09:04:21;;;;;;;3.38;1.92;;;;;;;26.49;27.83;94803.75;4925530;28;20467;-32
2022/04/01 09:06:47;;;;;;;2.90;1.92;;;;;;;26.49;28.14;94803.75;4926390;28;20040;-31
2022/04/01 09:09:26;;;;;;;4.60;1.90;;;;;;;26.48;27.90;94799.47;4921190;28;20027;-34
2022/04/01 09:12:12;;;;;;;2.63;1.80;;;;;;;26.48;27.65;94810.78;4925960;28;20107;-30
2022/04/01 09:14:38;;;;;;;3.38;1.85;;;;;;;26.49;27.66;94806.38;4930311;28;20040;-29
2022/04/01 09:17:05;;;;;;;2.63;1.50;;;;;;;26.50;27.92;94818.53;4928498;28;20039;-30
2022/04/01 09:19:31;;;;;;;3.08;1.90;;;;;;;26.50;27.69;94815.09;4932707;28;20031;-31
2022/04/01 09:21:57;;;;;;;39.78;2.53;;;;;;;26.50;27.63;94813.28;4923368;28;20058;-32
2022/04/01 09:24:22;;;;;;;36.05;2.60;;;;;;;26.47;27.62;94816.19;4932836;28;20058;-31
2022/04/01 09:26:54;;;;;;;19.75;2.50;;;;;;;26.47;27.18;94816.19;4947220;28;20043;-30
2022/04/01 09:29:20;;;;;;;6.50;1.90;;;;;;;26.44;27.71;94819.06;4942271;28;20030;-33
2022/04/01 09:31:50;;;;;;;10.43;2.25;;;;;;;26.41;27.42;94812.31;4931599;28;20103;-29
2022/04/01 09:34:15;;;;;;;6.93;2.03;;;;;;;26.40;27.58;94821.16;4926992;28;20927;-32
2022/04/01 09:36:42;;;;;;;6.95;2.08;;;;;;;26.40;27.58;94821.16;4931695;28;20023;-32
2022/04/01 09:39:08;;;;;;;12.85;2.40;;;;;;;26.37;27.54;94828.44;4933936;28;20043;-31
2022/04/01 09:41:39;;;;;;;13.98;2.40;;;;;;;26.35;27.75;94834.66;4930713;28;20083;-32
2022/04/01 09:44:18;;;;;;;8.65;2.80;;;;;;;26.35;27.75;94834.66;4924075;28;20039;-35
2022/04/01 09:46:47;;;;;;;11.18;2.58;;;;;;;26.33;27.82;94841.84;4922876;28;20027;-34
2022/04/01 09:49:14;;;;;;;4.72;2.42;;;;;;;26.32;27.82;94834.91;4920240;28;20066;-36
2022/04/01 09:51:43;;;;;;;7.97;2.50;;;;;;;26.31;27.93;94849.03;4941067;28;20062;-32
2022/04/01 09:54:09;;;;;;;9.60;2.65;;;;;;;26.30;27.43;94847.38;4927849;28;20028;-31
2022/04/01 09:56:38;;;;;;;8.90;2.42;;;;;;;26.29;27.95;94850.97;4924270;28;20751;-33
2022/04/01 09:59:05;;;;;;;6.05;2.47;;;;;;;26.29;27.43;94850.97;4928469;28;20529;-33
2022/04/01 10:01:34;;;;;;;5.53;2.30;;;;;;;26.28;27.54;94849.28;4939931;28;20031;-37
2022/04/01 10:04:00;;;;;;;15.07;2.67;;;;;;;26.28;28.10;94854.53;4937377;28;20059;-40
2022/04/01 10:06:26;;;;;;;9.55;2.45;;;;;;;26.29;27.54;94858.84;4920358;28;20084;-38
2022/04/01 10:08:51;;;;;;;11.88;2.65;;;;;;;26.28;27.54;94854.53;4925334;28;20118;-33
2022/04/01 10:11:18;;;;;;;9.65;2.10;;;;;;;26.29;28.13;94858.00;4919431;28;21145;-31
2022/04/01 10:13:44;;;;;;;10.13;2.30;;;;;;;26.28;27.74;94853.72;4923796;28;20469;-33
2022/04/01 10:16:10;;;;;;;9.40;2.50;;;;;;;26.28;27.74;94853.72;4934440;28;20087;-31
2022/04/01 10:18:35;;;;;;;5.47;2.30;;;;;;;26.28;27.46;94854.53;4924284;28;20035;-30
2022/04/01 10:21:02;;;;;;;13.10;2.75;;;;;;;26.28;27.46;94854.53;4921048;28;20114;-31
2022/04/01 10:23:27;;;;;;;7.20;2.55;;;;;;;26.28;27.63;94856.34;4928764;28;20494;-32
2022/04/01 10:26:09;;;;;;;8.57;2.70;;;;;;;26.27;27.85;94858.13;4946872;28;20093;-30
2022/04/01 10:28:34;;;;;;;13.80;2.78;;;;;;;26.27;28.15;94860.75;4932577;28;20034;-36
2022/04/01 10:31:01;;;;;;;7.03;2.35;;;;;;;26.26;28.09;94856.47;4927647;28;20395;-32
2022/04/01 10:33:38;;;;;;;7.57;2.35;;;;;;;26.26;27.86;94853.84;4914993;28;20031;-33
2022/04/01 10:36:24;;;;;;;11.48;2.28;;;;;;;26.27;28.13;94863.38;4916589;28;20043;-28
2022/04/01 10:38:53;;;;;;;7.53;1.98;;;;;;;26.29;27.84;94861.47;4923398;28;20082;-31
2022/04/01 10:41:19;;;;;;;11.18;2.42;;;;;;;26.30;27.85;94863.13;4928662;28;22129;-31
2022/04/01 10:43:45;;;;;;;14.85;2.03;;;;;;;26.33;27.66;94860.25;4924386;28;20027;-30
2022/04/01 10:46:15;;;;;;;10.38;2.70;;;;;;;26.35;27.75;94860.94;4921801;28;20129;-28
2022/04/01 10:52:17;;;;;;;11.95;2.67;;;;;;;26.41;28.33;94863.97;4928917;28;20095;-29
2022/04/01 10:54:43;;;;;;;7.55;2.30;;;;;;;26.44;28.23;94871.59;4926617;28;20879;-27
2022/04/01 10:57:25;;;;;;;13.25;2.25;;;;;;;26.46;28.20;94872.28;4930928;28;20039;-31
2022/04/01 10:59:51;;;;;;;7.80;2.05;;;;;;;26.47;28.45;94869.53;4925981;28;20059;-29
2022/04/01 11:02:23;;;;;;;8.40;2.20;;;;;;;26.50;28.62;94873.69;4922359;28;20043;-30
2022/04/01 11:04:50;;;;;;;12.55;2.35;;;;;;;26.50;28.75;94873.69;4923165;28;20449;-29
2022/04/01 11:07:22;;;;;;;6.50;2.90;;;;;;;26.51;28.35;94870.13;4924377;28;20063;-29
2022/04/01 11:09:49;;;;;;;6.43;3.72;;;;;;;26.47;27.63;94879.22;4920203;28;20517;-28
2022/04/01 11:12:18;;;;;;;7.88;3.63;;;;;;;26.37;27.03;94878.34;4917422;28;20031;-32
2022/04/01 11:17:34;;;;;;;5.00;3.10;;;;;;;26.08;25.27;94877.19;4923578;28;20035;-36
2022/04/01 11:20:13;;;;;;;4.00;2.80;;;;;;;25.91;25.04;94883.88;4929822;28;20702;-31
2022/04/01 11:22:42;;;;;;;3.90;3.20;;;;;;;25.76;24.75;94889.47;4925200;28;20059;-34
2022/04/01 11:25:11;;;;;;;4.97;3.20;;;;;;;25.60;24.21;94887.28;4924946;28;20047;-31
2022/04/01 11:27:37;;;;;;;4.20;2.33;;;;;;;25.49;24.85;94880.25;4932460;28;20061;-30
2022/04/01 11:30:09;;;;;;;6.07;1.80;;;;;;;25.44;25.62;94879.81;4915332;28;20685;-30
2022/04/01 11:32:35;;;;;;;4.82;1.70;;;;;;;25.43;25.69;94886.00;4918315;28;20051;-29
2022/04/01 11:35:01;;;;;;;4.60;1.40;;;;;;;25.44;25.80;94882.44;4915056;28;20023;-33
2022/04/01 11:37:27;;;;;;;4.57;1.73;;;;;;;25.46;26.24;94885.75;4909671;28;20047;-37
2022/04/01 11:39:52;;;;;;;3.70;1.63;;;;;;;25.49;26.46;94893.38;4914078;28;20035;-31
2022/04/01 11:42:17;;;;;;;7.00;1.77;;;;;;;25.55;26.92;94892.88;4906739;28;20091;-33
2022/04/01 11:44:56;;;;;;;3.70;1.92;;;;;;;25.59;26.92;94888.22;4914086;28;20102;-34
2022/04/01 11:47:27;;;;;;;5.60;1.35;;;;;;;25.63;26.38;94894.88;4921187;28;20078;-31
2022/04/01 11:50:08;;;;;;;5.85;1.60;;;;;;;25.68;27.05;94895.34;4919043;28;20034;-30
2022/04/01 11:52:43;;;;;;;2.83;1.27;;;;;;;25.71;26.66;94889.00;4921086;28;20038;-29
2022/04/01 11:55:21;;;;;;;5.15;1.40;;;;;;;25.75;26.49;94890.44;4921400;28;20043;-31
2022/04/01 11:57:47;;;;;;;5.57;1.70;;;;;;;25.78;27.15;94882.28;4924857;28;20035;-30